sensor_id;sensor_type;location;lat;lon;timestamp;pressure;altitude;pressure_sealevel;temperature;humidity
64602;BME280;68371;42.630;23.192;2023-08-08T00:01:35;92273.50;;;16.47;85.81
64602;BME280;68371;42.630;23.192;2023-08-08T00:04:02;92273.88;;;16.49;87.16
64602;BME280;68371;42.630;23.192;2023-08-08T00:06:28;92276.47;;;16.35;87.59
64602;BME280;68371;42.630;23.192;2023-08-08T00:08:55;92284.06;;;16.33;87.38
64602;BME280;68371;42.630;23.192;2023-08-08T00:11:22;92292.38;;;16.35;87.47
64602;BME280;68371;42.630;23.192;2023-08-08T00:13:51;92294.28;;;16.34;87.24
64602;BME280;68371;42.630;23.192;2023-08-08T00:16:18;92281.38;;;16.29;88.13
64602;BME280;68371;42.630;23.192;2023-08-08T00:18:46;92285.94;;;16.32;88.40
64602;BME280;68371;42.630;23.192;2023-08-08T00:21:15;92286.72;;;16.36;88.57
64602;BME280;68371;42.630;23.192;2023-08-08T00:23:41;92297.28;;;16.29;89.44
64602;BME280;68371;42.630;23.192;2023-08-08T00:26:08;92301.09;;;16.35;90.18
64602;BME280;68371;42.630;23.192;2023-08-08T00:28:35;92301.44;;;16.23;90.19
64602;BME280;68371;42.630;23.192;2023-08-08T00:31:03;92310.06;;;16.09;91.11
64602;BME280;68371;42.630;23.192;2023-08-08T00:33:29;92305.91;;;16.12;90.72
64602;BME280;68371;42.630;23.192;2023-08-08T00:35:56;92307.72;;;15.97;89.02
64602;BME280;68371;42.630;23.192;2023-08-08T00:38:23;92307.69;;;15.93;90.52
64602;BME280;68371;42.630;23.192;2023-08-08T00:40:50;92306.38;;;15.66;92.66
64602;BME280;68371;42.630;23.192;2023-08-08T00:43:19;92270.72;;;15.49;91.96
64602;BME280;68371;42.630;23.192;2023-08-08T00:45:46;92315.97;;;15.77;92.89
64602;BME280;68371;42.630;23.192;2023-08-08T00:48:14;92321.97;;;15.74;93.21
64602;BME280;68371;42.630;23.192;2023-08-08T00:50:43;92322.41;;;15.80;90.96
64602;BME280;68371;42.630;23.192;2023-08-08T00:53:09;92319.78;;;15.84;91.46
64602;BME280;68371;42.630;23.192;2023-08-08T00:55:36;92306.09;;;15.74;90.92
64602;BME280;68371;42.630;23.192;2023-08-08T00:58:04;92326.59;;;15.85;89.82
64602;BME280;68371;42.630;23.192;2023-08-08T01:00:30;92306.16;;;15.81;89.33
64602;BME280;68371;42.630;23.192;2023-08-08T01:02:57;92320.81;;;15.72;89.35
64602;BME280;68371;42.630;23.192;2023-08-08T01:05:32;92323.50;;;15.75;89.67
64602;BME280;68371;42.630;23.192;2023-08-08T01:08:04;92325.03;;;15.80;90.30
64602;BME280;68371;42.630;23.192;2023-08-08T01:10:34;92331.13;;;15.84;90.43
64602;BME280;68371;42.630;23.192;2023-08-08T01:13:06;92329.66;;;15.90;89.91
64602;BME280;68371;42.630;23.192;2023-08-08T01:15:34;92331.94;;;15.92;89.76
64602;BME280;68371;42.630;23.192;2023-08-08T01:18:03;92332.59;;;15.78;88.53
64602;BME280;68371;42.630;23.192;2023-08-08T01:20:32;92327.31;;;15.78;87.62
64602;BME280;68371;42.630;23.192;2023-08-08T01:23:07;92311.03;;;15.76;88.25
64602;BME280;68371;42.630;23.192;2023-08-08T01:25:38;92323.94;;;15.85;88.10
64602;BME280;68371;42.630;23.192;2023-08-08T01:28:06;92336.44;;;15.91;88.98
64602;BME280;68371;42.630;23.192;2023-08-08T01:30:33;92322.47;;;15.91;88.90
64602;BME280;68371;42.630;23.192;2023-08-08T01:33:01;92313.59;;;15.69;88.68
64602;BME280;68371;42.630;23.192;2023-08-08T01:35:30;92353.47;;;15.87;88.83
64602;BME280;68371;42.630;23.192;2023-08-08T01:38:02;92335.09;;;15.60;89.07
64602;BME280;68371;42.630;23.192;2023-08-08T01:40:32;92361.25;;;15.69;88.39
64602;BME280;68371;42.630;23.192;2023-08-08T01:43:01;92339.53;;;15.49;87.77
64602;BME280;68371;42.630;23.192;2023-08-08T01:45:29;92333.78;;;15.36;88.94
64602;BME280;68371;42.630;23.192;2023-08-08T01:47:57;92349.69;;;15.39;84.46
64602;BME280;68371;42.630;23.192;2023-08-08T01:50:23;92353.44;;;15.35;84.44
64602;BME280;68371;42.630;23.192;2023-08-08T01:52:52;92359.75;;;15.23;85.15
64602;BME280;68371;42.630;23.192;2023-08-08T01:55:19;92361.34;;;15.31;86.78
64602;BME280;68371;42.630;23.192;2023-08-08T01:57:45;92371.97;;;15.38;86.10
64602;BME280;68371;42.630;23.192;2023-08-08T02:00:14;92365.50;;;15.32;87.58
64602;BME280;68371;42.630;23.192;2023-08-08T02:02:40;92354.47;;;15.23;87.92
64602;BME280;68371;42.630;23.192;2023-08-08T02:05:07;92344.44;;;15.02;88.04
64602;BME280;68371;42.630;23.192;2023-08-08T02:07:34;92356.38;;;15.26;88.57
64602;BME280;68371;42.630;23.192;2023-08-08T02:10:00;92358.16;;;15.15;87.78
64602;BME280;68371;42.630;23.192;2023-08-08T02:12:28;92357.50;;;15.25;87.64
64602;BME280;68371;42.630;23.192;2023-08-08T02:14:55;92338.13;;;15.14;88.14
64602;BME280;68371;42.630;23.192;2023-08-08T02:17:25;92382.44;;;15.24;87.81
64602;BME280;68371;42.630;23.192;2023-08-08T02:19:53;92391.91;;;15.25;87.62
64602;BME280;68371;42.630;23.192;2023-08-08T02:22:20;92390.41;;;15.28;86.79
64602;BME280;68371;42.630;23.192;2023-08-08T02:24:47;92391.97;;;15.32;87.89
64602;BME280;68371;42.630;23.192;2023-08-08T02:27:14;92354.34;;;15.12;88.04
64602;BME280;68371;42.630;23.192;2023-08-08T02:29:40;92359.44;;;14.91;86.79
64602;BME280;68371;42.630;23.192;2023-08-08T02:32:07;92366.53;;;14.83;87.20
64602;BME280;68371;42.630;23.192;2023-08-08T02:34:35;92379.66;;;14.76;87.15
64602;BME280;68371;42.630;23.192;2023-08-08T02:37:02;92392.59;;;14.81;87.98
64602;BME280;68371;42.630;23.192;2023-08-08T02:39:30;92385.53;;;14.92;88.61
64602;BME280;68371;42.630;23.192;2023-08-08T02:41:56;92380.88;;;14.82;88.10
64602;BME280;68371;42.630;23.192;2023-08-08T02:44:25;92392.94;;;14.79;87.91
64602;BME280;68371;42.630;23.192;2023-08-08T02:46:51;92393.44;;;14.89;87.58
64602;BME280;68371;42.630;23.192;2023-08-08T02:49:18;92395.34;;;14.92;88.04
64602;BME280;68371;42.630;23.192;2023-08-08T02:51:46;92411.25;;;14.95;89.30
64602;BME280;68371;42.630;23.192;2023-08-08T02:54:13;92408.59;;;14.95;88.11
64602;BME280;68371;42.630;23.192;2023-08-08T02:56:39;92382.31;;;14.72;87.49
64602;BME280;68371;42.630;23.192;2023-08-08T02:59:06;92409.69;;;14.57;88.47
64602;BME280;68371;42.630;23.192;2023-08-08T03:01:33;92413.31;;;14.49;89.46
64602;BME280;68371;42.630;23.192;2023-08-08T03:04:04;92408.97;;;14.60;89.21
64602;BME280;68371;42.630;23.192;2023-08-08T03:06:31;92392.06;;;14.38;88.90
64602;BME280;68371;42.630;23.192;2023-08-08T03:09:01;92402.97;;;14.36;88.91
64602;BME280;68371;42.630;23.192;2023-08-08T03:11:28;92414.84;;;14.19;89.21
64602;BME280;68371;42.630;23.192;2023-08-08T03:13:54;92415.50;;;14.43;89.19
64602;BME280;68371;42.630;23.192;2023-08-08T03:16:21;92415.66;;;14.54;88.71
64602;BME280;68371;42.630;23.192;2023-08-08T03:18:48;92414.47;;;14.48;89.13
64602;BME280;68371;42.630;23.192;2023-08-08T03:21:15;92422.13;;;14.56;88.88
64602;BME280;68371;42.630;23.192;2023-08-08T03:23:41;92422.34;;;14.44;87.99
64602;BME280;68371;42.630;23.192;2023-08-08T03:26:09;92422.34;;;14.44;89.05
64602;BME280;68371;42.630;23.192;2023-08-08T03:28:36;92431.78;;;14.45;89.36
64602;BME280;68371;42.630;23.192;2023-08-08T03:31:03;92416.19;;;14.36;88.49
64602;BME280;68371;42.630;23.192;2023-08-08T03:33:29;92424.16;;;14.40;89.15
64602;BME280;68371;42.630;23.192;2023-08-08T03:35:58;92418.16;;;14.43;89.44
64602;BME280;68371;42.630;23.192;2023-08-08T03:38:24;92432.75;;;14.60;89.16
64602;BME280;68371;42.630;23.192;2023-08-08T03:40:51;92435.41;;;14.60;89.42
64602;BME280;68371;42.630;23.192;2023-08-08T03:43:19;92433.38;;;14.50;88.60
64602;BME280;68371;42.630;23.192;2023-08-08T03:45:46;92421.88;;;14.38;89.85
64602;BME280;68371;42.630;23.192;2023-08-08T03:48:13;92416.66;;;14.42;89.65
64602;BME280;68371;42.630;23.192;2023-08-08T03:50:39;92422.41;;;14.51;89.77
64602;BME280;68371;42.630;23.192;2023-08-08T03:53:06;92425.06;;;14.51;89.41
64602;BME280;68371;42.630;23.192;2023-08-08T03:55:34;92422.94;;;14.60;89.66
64602;BME280;68371;42.630;23.192;2023-08-08T03:58:00;92417.38;;;14.69;89.18
64602;BME280;68371;42.630;23.192;2023-08-08T04:00:30;92429.16;;;14.75;88.92
64602;BME280;68371;42.630;23.192;2023-08-08T04:02:57;92419.22;;;14.65;88.82
64602;BME280;68371;42.630;23.192;2023-08-08T04:05:24;92452.56;;;14.73;89.25
64602;BME280;68371;42.630;23.192;2023-08-08T04:07:50;92445.75;;;14.72;90.02
64602;BME280;68371;42.630;23.192;2023-08-08T04:10:17;92449.63;;;14.82;90.30
64602;BME280;68371;42.630;23.192;2023-08-08T04:12:44;92447.75;;;14.82;90.18
64602;BME280;68371;42.630;23.192;2023-08-08T04:15:11;92450.75;;;14.81;89.75
64602;BME280;68371;42.630;23.192;2023-08-08T04:17:39;92452.25;;;14.78;89.60
64602;BME280;68371;42.630;23.192;2023-08-08T04:20:06;92446.28;;;14.85;89.81
64602;BME280;68371;42.630;23.192;2023-08-08T04:22:35;92453.22;;;14.97;88.46
64602;BME280;68371;42.630;23.192;2023-08-08T04:25:03;92447.19;;;14.96;88.52
64602;BME280;68371;42.630;23.192;2023-08-08T04:27:31;92455.56;;;15.06;88.80
64602;BME280;68371;42.630;23.192;2023-08-08T04:29:58;92467.38;;;15.12;88.99
64602;BME280;68371;42.630;23.192;2023-08-08T04:32:25;92461.72;;;15.13;89.67
64602;BME280;68371;42.630;23.192;2023-08-08T04:34:53;92458.56;;;15.04;88.67
64602;BME280;68371;42.630;23.192;2023-08-08T04:37:20;92464.25;;;15.02;88.01
64602;BME280;68371;42.630;23.192;2023-08-08T04:39:46;92457.38;;;14.98;88.72
64602;BME280;68371;42.630;23.192;2023-08-08T04:42:13;92439.66;;;14.98;88.40
64602;BME280;68371;42.630;23.192;2023-08-08T04:44:40;92438.19;;;15.05;88.85
64602;BME280;68371;42.630;23.192;2023-08-08T04:47:07;92421.19;;;15.06;88.31
64602;BME280;68371;42.630;23.192;2023-08-08T04:49:33;92420.34;;;14.98;87.86
64602;BME280;68371;42.630;23.192;2023-08-08T04:52:02;92448.53;;;15.17;88.71
64602;BME280;68371;42.630;23.192;2023-08-08T04:54:29;92459.06;;;15.13;89.09
64602;BME280;68371;42.630;23.192;2023-08-08T04:56:55;92471.50;;;15.09;88.56
64602;BME280;68371;42.630;23.192;2023-08-08T04:59:23;92485.19;;;15.15;89.21
64602;BME280;68371;42.630;23.192;2023-08-08T05:01:49;92502.91;;;15.14;88.18
64602;BME280;68371;42.630;23.192;2023-08-08T05:04:17;92510.50;;;15.16;88.24
64602;BME280;68371;42.630;23.192;2023-08-08T05:06:43;92512.75;;;15.14;87.26
64602;BME280;68371;42.630;23.192;2023-08-08T05:09:12;92508.59;;;15.16;86.46
64602;BME280;68371;42.630;23.192;2023-08-08T05:11:41;92521.09;;;14.86;80.31
64602;BME280;68371;42.630;23.192;2023-08-08T05:14:10;92524.09;;;14.84;80.86
64602;BME280;68371;42.630;23.192;2023-08-08T05:16:38;92522.47;;;14.76;84.39
64602;BME280;68371;42.630;23.192;2023-08-08T05:19:05;92523.53;;;14.71;81.89
64602;BME280;68371;42.630;23.192;2023-08-08T05:21:35;92528.13;;;14.74;81.13
64602;BME280;68371;42.630;23.192;2023-08-08T05:24:01;92531.03;;;14.96;81.79
64602;BME280;68371;42.630;23.192;2023-08-08T05:26:29;92525.91;;;15.07;83.20
64602;BME280;68371;42.630;23.192;2023-08-08T05:28:56;92533.22;;;15.20;81.68
64602;BME280;68371;42.630;23.192;2023-08-08T05:31:23;92550.25;;;15.19;80.77
64602;BME280;68371;42.630;23.192;2023-08-08T05:33:50;92552.34;;;15.07;82.42
64602;BME280;68371;42.630;23.192;2023-08-08T05:36:16;92553.06;;;15.03;79.28
64602;BME280;68371;42.630;23.192;2023-08-08T05:38:43;92558.00;;;15.05;80.48
64602;BME280;68371;42.630;23.192;2023-08-08T05:41:10;92559.22;;;15.11;81.91
64602;BME280;68371;42.630;23.192;2023-08-08T05:43:38;92565.03;;;15.24;80.30
64602;BME280;68371;42.630;23.192;2023-08-08T05:46:06;92557.59;;;15.33;80.84
64602;BME280;68371;42.630;23.192;2023-08-08T05:48:33;92544.25;;;15.26;81.25
64602;BME280;68371;42.630;23.192;2023-08-08T05:51:00;92560.81;;;15.19;80.77
64602;BME280;68371;42.630;23.192;2023-08-08T05:53:29;92576.47;;;15.32;80.87
64602;BME280;68371;42.630;23.192;2023-08-08T05:55:56;92573.53;;;15.37;82.61
64602;BME280;68371;42.630;23.192;2023-08-08T05:58:23;92583.38;;;15.40;82.38
64602;BME280;68371;42.630;23.192;2023-08-08T06:00:52;92591.25;;;15.36;81.75
64602;BME280;68371;42.630;23.192;2023-08-08T06:03:18;92584.53;;;15.42;80.23
64602;BME280;68371;42.630;23.192;2023-08-08T06:05:45;92589.25;;;15.26;78.78
64602;BME280;68371;42.630;23.192;2023-08-08T06:08:12;92583.47;;;15.17;79.77
64602;BME280;68371;42.630;23.192;2023-08-08T06:10:43;92595.63;;;15.21;81.49
64602;BME280;68371;42.630;23.192;2023-08-08T06:13:11;92585.91;;;15.29;80.29
64602;BME280;68371;42.630;23.192;2023-08-08T06:15:38;92575.72;;;15.31;77.40
64602;BME280;68371;42.630;23.192;2023-08-08T06:18:06;92595.13;;;15.42;76.52
64602;BME280;68371;42.630;23.192;2023-08-08T06:20:33;92574.94;;;15.31;76.38
64602;BME280;68371;42.630;23.192;2023-08-08T06:22:59;92588.75;;;15.47;78.33
64602;BME280;68371;42.630;23.192;2023-08-08T06:25:26;92597.13;;;15.53;77.46
64602;BME280;68371;42.630;23.192;2023-08-08T06:27:53;92593.72;;;15.52;76.86
64602;BME280;68371;42.630;23.192;2023-08-08T06:30:20;92597.91;;;15.53;75.34
64602;BME280;68371;42.630;23.192;2023-08-08T06:32:47;92590.47;;;15.32;75.08
64602;BME280;68371;42.630;23.192;2023-08-08T06:35:15;92587.19;;;15.42;75.97
64602;BME280;68371;42.630;23.192;2023-08-08T06:37:43;92585.06;;;15.55;78.95
64602;BME280;68371;42.630;23.192;2023-08-08T06:40:11;92588.59;;;15.67;76.15
64602;BME280;68371;42.630;23.192;2023-08-08T06:42:39;92544.75;;;15.35;76.45
64602;BME280;68371;42.630;23.192;2023-08-08T06:45:07;92593.31;;;15.50;74.73
64602;BME280;68371;42.630;23.192;2023-08-08T06:47:35;92593.88;;;15.67;73.07
64602;BME280;68371;42.630;23.192;2023-08-08T06:50:02;92592.34;;;15.62;75.21
64602;BME280;68371;42.630;23.192;2023-08-08T06:52:30;92599.38;;;15.51;72.15
64602;BME280;68371;42.630;23.192;2023-08-08T06:54:56;92606.66;;;15.57;73.89
64602;BME280;68371;42.630;23.192;2023-08-08T06:57:23;92609.56;;;15.79;74.25
64602;BME280;68371;42.630;23.192;2023-08-08T06:59:50;92606.91;;;15.79;70.75
64602;BME280;68371;42.630;23.192;2023-08-08T07:02:19;92584.94;;;15.45;72.16
64602;BME280;68371;42.630;23.192;2023-08-08T07:04:46;92600.19;;;15.55;72.09
64602;BME280;68371;42.630;23.192;2023-08-08T07:07:12;92595.78;;;15.66;71.59
64602;BME280;68371;42.630;23.192;2023-08-08T07:09:42;92604.47;;;15.67;72.23
64602;BME280;68371;42.630;23.192;2023-08-08T07:12:10;92599.66;;;15.72;69.14
64602;BME280;68371;42.630;23.192;2023-08-08T07:14:37;92599.66;;;15.42;70.85
64602;BME280;68371;42.630;23.192;2023-08-08T07:17:03;92605.31;;;15.40;72.33
64602;BME280;68371;42.630;23.192;2023-08-08T07:19:30;92602.25;;;15.38;71.80
64602;BME280;68371;42.630;23.192;2023-08-08T07:21:57;92595.69;;;15.25;71.92
64602;BME280;68371;42.630;23.192;2023-08-08T07:24:23;92603.97;;;15.23;73.08
64602;BME280;68371;42.630;23.192;2023-08-08T07:26:55;92591.78;;;15.15;73.52
64602;BME280;68371;42.630;23.192;2023-08-08T07:29:21;92600.56;;;15.23;73.02
64602;BME280;68371;42.630;23.192;2023-08-08T07:31:48;92596.59;;;15.40;73.82
64602;BME280;68371;42.630;23.192;2023-08-08T07:34:16;92595.91;;;15.47;72.58
64602;BME280;68371;42.630;23.192;2023-08-08T07:36:43;92594.56;;;15.60;71.76
64602;BME280;68371;42.630;23.192;2023-08-08T07:39:09;92591.38;;;15.43;69.45
64602;BME280;68371;42.630;23.192;2023-08-08T07:41:36;92602.19;;;15.31;69.80
64602;BME280;68371;42.630;23.192;2023-08-08T07:44:05;92596.22;;;15.38;69.35
64602;BME280;68371;42.630;23.192;2023-08-08T07:46:32;92576.53;;;15.35;69.36
64602;BME280;68371;42.630;23.192;2023-08-08T07:48:59;92590.88;;;15.68;70.61
64602;BME280;68371;42.630;23.192;2023-08-08T07:51:28;92591.81;;;15.83;71.28
64602;BME280;68371;42.630;23.192;2023-08-08T07:53:55;92585.72;;;15.79;66.12
64602;BME280;68371;42.630;23.192;2023-08-08T07:56:22;92595.22;;;15.80;69.48
64602;BME280;68371;42.630;23.192;2023-08-08T07:58:49;92588.41;;;15.82;68.80
64602;BME280;68371;42.630;23.192;2023-08-08T08:01:18;92597.50;;;15.85;70.88
64602;BME280;68371;42.630;23.192;2023-08-08T08:03:45;92594.34;;;16.06;69.12
64602;BME280;68371;42.630;23.192;2023-08-08T08:06:14;92570.56;;;16.17;67.77
64602;BME280;68371;42.630;23.192;2023-08-08T08:08:41;92585.81;;;16.27;66.62
64602;BME280;68371;42.630;23.192;2023-08-08T08:11:08;92587.22;;;16.17;63.39
64602;BME280;68371;42.630;23.192;2023-08-08T08:13:34;92589.84;;;16.10;65.63
64602;BME280;68371;42.630;23.192;2023-08-08T08:16:01;92593.28;;;16.18;65.76
64602;BME280;68371;42.630;23.192;2023-08-08T08:18:30;92594.38;;;16.13;66.02
64602;BME280;68371;42.630;23.192;2023-08-08T08:20:58;92592.88;;;16.12;64.69
64602;BME280;68371;42.630;23.192;2023-08-08T08:23:25;92534.25;;;15.76;66.96
64602;BME280;68371;42.630;23.192;2023-08-08T08:25:52;92598.69;;;15.88;65.87
64602;BME280;68371;42.630;23.192;2023-08-08T08:28:19;92598.06;;;16.01;65.92
64602;BME280;68371;42.630;23.192;2023-08-08T08:30:46;92598.59;;;16.18;65.22
64602;BME280;68371;42.630;23.192;2023-08-08T08:33:14;92597.16;;;16.28;67.43
64602;BME280;68371;42.630;23.192;2023-08-08T08:35:42;92585.09;;;16.34;65.40
64602;BME280;68371;42.630;23.192;2023-08-08T08:38:11;92598.63;;;16.21;66.65
64602;BME280;68371;42.630;23.192;2023-08-08T08:40:39;92599.41;;;16.26;64.38
64602;BME280;68371;42.630;23.192;2023-08-08T08:43:07;92576.59;;;16.14;62.28
64602;BME280;68371;42.630;23.192;2023-08-08T08:45:37;92594.22;;;16.36;61.67
64602;BME280;68371;42.630;23.192;2023-08-08T08:48:07;92582.56;;;16.45;62.86
64602;BME280;68371;42.630;23.192;2023-08-08T08:50:35;92589.47;;;16.60;61.92
64602;BME280;68371;42.630;23.192;2023-08-08T08:53:03;92565.28;;;16.65;62.62
64602;BME280;68371;42.630;23.192;2023-08-08T08:55:32;92592.84;;;17.01;61.07
64602;BME280;68371;42.630;23.192;2023-08-08T08:57:59;92597.38;;;17.05;60.91
64602;BME280;68371;42.630;23.192;2023-08-08T09:00:25;92585.25;;;17.04;60.39
64602;BME280;68371;42.630;23.192;2023-08-08T09:02:52;92587.13;;;16.99;60.62
64602;BME280;68371;42.630;23.192;2023-08-08T09:05:24;92588.28;;;17.02;61.46
64602;BME280;68371;42.630;23.192;2023-08-08T09:07:52;92593.38;;;16.73;62.70
64602;BME280;68371;42.630;23.192;2023-08-08T09:10:22;92593.72;;;16.72;60.70
64602;BME280;68371;42.630;23.192;2023-08-08T09:12:51;92590.44;;;16.86;62.22
64602;BME280;68371;42.630;23.192;2023-08-08T09:15:18;92587.91;;;17.04;61.91
64602;BME280;68371;42.630;23.192;2023-08-08T09:17:46;92580.09;;;17.32;62.27
64602;BME280;68371;42.630;23.192;2023-08-08T09:20:13;92577.53;;;17.50;61.48
64602;BME280;68371;42.630;23.192;2023-08-08T09:22:40;92569.19;;;17.55;60.70
64602;BME280;68371;42.630;23.192;2023-08-08T09:25:07;92580.25;;;17.68;61.24
64602;BME280;68371;42.630;23.192;2023-08-08T09:27:36;92571.88;;;17.66;59.71
64602;BME280;68371;42.630;23.192;2023-08-08T09:30:03;92583.22;;;17.59;62.06
64602;BME280;68371;42.630;23.192;2023-08-08T09:32:31;92580.94;;;17.54;59.99
64602;BME280;68371;42.630;23.192;2023-08-08T09:34:58;92583.69;;;17.72;58.80
64602;BME280;68371;42.630;23.192;2023-08-08T09:37:25;92584.47;;;17.84;59.51
64602;BME280;68371;42.630;23.192;2023-08-08T09:39:56;92596.94;;;17.69;57.48
64602;BME280;68371;42.630;23.192;2023-08-08T09:42:23;92602.53;;;17.42;59.61
64602;BME280;68371;42.630;23.192;2023-08-08T09:44:53;92604.50;;;17.63;58.47
64602;BME280;68371;42.630;23.192;2023-08-08T09:47:20;92596.56;;;17.67;57.79
64602;BME280;68371;42.630;23.192;2023-08-08T09:49:50;92600.75;;;17.82;60.15
64602;BME280;68371;42.630;23.192;2023-08-08T09:52:19;92608.06;;;17.99;59.40
64602;BME280;68371;42.630;23.192;2023-08-08T09:54:47;92571.09;;;17.66;56.86
64602;BME280;68371;42.630;23.192;2023-08-08T09:57:16;92599.28;;;17.88;56.82
64602;BME280;68371;42.630;23.192;2023-08-08T09:59:44;92606.53;;;18.02;59.31
64602;BME280;68371;42.630;23.192;2023-08-08T10:02:14;92602.03;;;18.17;57.50
64602;BME280;68371;42.630;23.192;2023-08-08T10:04:41;92583.06;;;18.36;56.94
64602;BME280;68371;42.630;23.192;2023-08-08T10:07:08;92587.63;;;18.36;55.57
64602;BME280;68371;42.630;23.192;2023-08-08T10:09:35;92568.59;;;18.12;55.74
64602;BME280;68371;42.630;23.192;2023-08-08T10:12:03;92590.25;;;18.14;55.40
64602;BME280;68371;42.630;23.192;2023-08-08T10:14:32;92604.66;;;18.06;56.64
64602;BME280;68371;42.630;23.192;2023-08-08T10:16:58;92606.53;;;17.91;56.06
64602;BME280;68371;42.630;23.192;2023-08-08T10:19:27;92600.84;;;17.93;56.86
64602;BME280;68371;42.630;23.192;2023-08-08T10:21:59;92607.72;;;18.05;58.76
64602;BME280;68371;42.630;23.192;2023-08-08T10:24:32;92609.63;;;18.15;58.71
64602;BME280;68371;42.630;23.192;2023-08-08T10:27:00;92596.38;;;18.44;53.87
64602;BME280;68371;42.630;23.192;2023-08-08T10:29:29;92590.66;;;18.74;54.06
64602;BME280;68371;42.630;23.192;2023-08-08T10:32:00;92587.22;;;18.77;54.58
64602;BME280;68371;42.630;23.192;2023-08-08T10:34:36;92594.06;;;19.03;51.81
64602;BME280;68371;42.630;23.192;2023-08-08T10:37:04;92572.06;;;18.92;54.04
64602;BME280;68371;42.630;23.192;2023-08-08T10:39:31;92580.03;;;18.92;53.63
64602;BME280;68371;42.630;23.192;2023-08-08T10:42:03;92583.03;;;19.12;55.61
64602;BME280;68371;42.630;23.192;2023-08-08T10:44:30;92569.28;;;19.35;54.32
64602;BME280;68371;42.630;23.192;2023-08-08T10:46:59;92567.63;;;19.70;50.36
64602;BME280;68371;42.630;23.192;2023-08-08T10:49:28;92579.78;;;19.81;51.47
64602;BME280;68371;42.630;23.192;2023-08-08T10:52:04;92577.31;;;20.16;53.30
64602;BME280;68371;42.630;23.192;2023-08-08T10:54:31;92585.94;;;20.38;50.38
64602;BME280;68371;42.630;23.192;2023-08-08T10:56:59;92564.63;;;20.34;54.23
64602;BME280;68371;42.630;23.192;2023-08-08T10:59:36;92573.22;;;20.60;49.90
64602;BME280;68371;42.630;23.192;2023-08-08T11:02:04;92578.00;;;20.79;49.64
64602;BME280;68371;42.630;23.192;2023-08-08T11:04:33;92573.09;;;20.74;49.17
64602;BME280;68371;42.630;23.192;2023-08-08T11:07:00;92570.97;;;20.51;47.15
64602;BME280;68371;42.630;23.192;2023-08-08T11:09:27;92571.19;;;20.75;51.19
64602;BME280;68371;42.630;23.192;2023-08-08T11:11:55;92566.06;;;20.95;50.62
64602;BME280;68371;42.630;23.192;2023-08-08T11:14:23;92567.69;;;21.23;49.90
64602;BME280;68371;42.630;23.192;2023-08-08T11:16:50;92560.53;;;21.51;47.67
64602;BME280;68371;42.630;23.192;2023-08-08T11:19:17;92573.19;;;22.08;46.60
64602;BME280;68371;42.630;23.192;2023-08-08T11:21:47;92561.63;;;22.42;42.46
64602;BME280;68371;42.630;23.192;2023-08-08T11:24:14;92563.75;;;22.78;44.93
64602;BME280;68371;42.630;23.192;2023-08-08T11:26:45;92560.97;;;22.85;43.92
64602;BME280;68371;42.630;23.192;2023-08-08T11:29:12;92573.06;;;22.46;42.63
64602;BME280;68371;42.630;23.192;2023-08-08T11:31:39;92540.69;;;22.37;44.83
64602;BME280;68371;42.630;23.192;2023-08-08T11:34:07;92566.09;;;22.99;44.62
64602;BME280;68371;42.630;23.192;2023-08-08T11:36:35;92562.34;;;23.17;42.11
64602;BME280;68371;42.630;23.192;2023-08-08T11:39:05;92574.06;;;22.79;42.12
64602;BME280;68371;42.630;23.192;2023-08-08T11:41:34;92584.53;;;22.70;43.60
64602;BME280;68371;42.630;23.192;2023-08-08T11:44:02;92580.59;;;22.28;43.16
64602;BME280;68371;42.630;23.192;2023-08-08T11:46:29;92578.47;;;22.12;43.73
64602;BME280;68371;42.630;23.192;2023-08-08T11:49:02;92565.22;;;22.05;46.36
64602;BME280;68371;42.630;23.192;2023-08-08T11:51:30;92557.16;;;22.35;45.83
64602;BME280;68371;42.630;23.192;2023-08-08T11:54:01;92557.31;;;22.75;43.26
64602;BME280;68371;42.630;23.192;2023-08-08T11:56:33;92548.28;;;22.66;41.74
64602;BME280;68371;42.630;23.192;2023-08-08T11:59:00;92555.28;;;22.83;45.07
64602;BME280;68371;42.630;23.192;2023-08-08T12:01:27;92535.69;;;22.86;42.01
64602;BME280;68371;42.630;23.192;2023-08-08T12:03:55;92554.44;;;22.86;42.41
64602;BME280;68371;42.630;23.192;2023-08-08T12:06:22;92538.81;;;22.34;43.48
64602;BME280;68371;42.630;23.192;2023-08-08T12:08:54;92544.19;;;22.34;43.07
64602;BME280;68371;42.630;23.192;2023-08-08T12:11:21;92539.97;;;22.84;42.36
64602;BME280;68371;42.630;23.192;2023-08-08T12:13:49;92542.09;;;23.16;40.49
64602;BME280;68371;42.630;23.192;2023-08-08T12:16:15;92548.91;;;23.60;39.98
64602;BME280;68371;42.630;23.192;2023-08-08T12:18:43;92526.03;;;23.36;40.59
64602;BME280;68371;42.630;23.192;2023-08-08T12:21:09;92536.19;;;23.25;41.92
64602;BME280;68371;42.630;23.192;2023-08-08T12:23:36;92530.56;;;23.39;40.93
64602;BME280;68371;42.630;23.192;2023-08-08T12:26:04;92520.09;;;23.65;41.01
64602;BME280;68371;42.630;23.192;2023-08-08T12:28:32;92519.09;;;24.31;39.69
64602;BME280;68371;42.630;23.192;2023-08-08T12:31:02;92473.94;;;24.43;40.50
64602;BME280;68371;42.630;23.192;2023-08-08T12:33:28;92516.19;;;24.88;38.97
64602;BME280;68371;42.630;23.192;2023-08-08T12:35:56;92514.97;;;24.76;38.23
64602;BME280;68371;42.630;23.192;2023-08-08T12:38:23;92518.84;;;25.21;37.44
64602;BME280;68371;42.630;23.192;2023-08-08T12:40:50;92521.13;;;25.64;37.02
64602;BME280;68371;42.630;23.192;2023-08-08T12:43:16;92526.81;;;26.21;35.98
64602;BME280;68371;42.630;23.192;2023-08-08T12:45:43;92528.94;;;26.13;36.09
64602;BME280;68371;42.630;23.192;2023-08-08T12:48:12;92515.47;;;26.52;35.08
64602;BME280;68371;42.630;23.192;2023-08-08T12:50:39;92526.75;;;26.85;36.03
64602;BME280;68371;42.630;23.192;2023-08-08T12:53:06;92518.72;;;27.07;34.66